createdAt,value
2018-12-26T00:14:13.304Z,26.80
2018-12-26T00:16:52.667Z,25.60
2018-12-26T00:19:32.381Z,28.43
2018-12-26T00:22:11.786Z,28.20
2018-12-26T00:33:05.890Z,28.03
2018-12-26T00:44:00.278Z,27.00
2018-12-26T00:46:40.079Z,29.10
2018-12-26T00:49:19.520Z,26.67
2018-12-26T00:51:58.885Z,27.60
2018-12-26T00:54:38.402Z,25.83
2018-12-26T01:11:09.892Z,26.67
2018-12-26T01:13:49.442Z,27.90
2018-12-26T01:16:28.874Z,28.40
2018-12-26T01:19:08.406Z,25.93
2018-12-26T01:27:23.390Z,30.03
2018-12-26T01:30:02.781Z,26.53
2018-12-26T01:40:58.014Z,24.67
2018-12-26T01:46:16.715Z,24.70
2018-12-26T01:48:56.521Z,23.67
2018-12-26T01:51:35.882Z,25.07
2018-12-26T01:54:15.591Z,23.23
2018-12-26T01:56:55.292Z,26.87
2018-12-26T01:59:34.801Z,25.80
2018-12-26T02:02:14.264Z,24.07
2018-12-26T02:04:53.736Z,26.03
2018-12-26T02:07:33.399Z,27.50
2018-12-26T02:10:13.559Z,26.07
2018-12-26T02:15:32.239Z,24.20
2018-12-26T02:18:11.582Z,27.17
2018-12-26T02:20:51.255Z,23.83
2018-12-26T02:23:30.694Z,22.77
2018-12-26T02:37:20.655Z,25.07
2018-12-26T02:53:49.535Z,25.10
2018-12-26T02:56:28.997Z,29.37
2018-12-26T02:59:08.847Z,26.50
2018-12-26T03:01:48.318Z,25.37
2018-12-26T03:04:27.852Z,26.83
2018-12-26T03:07:07.450Z,25.67
2018-12-26T03:09:47.143Z,26.33
2018-12-26T03:12:26.455Z,26.57
2018-12-26T03:15:05.827Z,27.93
2018-12-26T03:17:46.658Z,25.03
2018-12-26T03:20:26.070Z,25.97
2018-12-26T03:36:55.290Z,26.97
2018-12-26T03:39:34.795Z,26.40
2018-12-26T03:50:29.795Z,28.50
2018-12-26T03:55:48.632Z,30.17
2018-12-26T03:58:28.291Z,27.33
2018-12-26T04:01:09.098Z,29.77
2018-12-26T04:03:48.675Z,33.07
2018-12-26T04:06:28.626Z,25.37
2018-12-26T04:17:23.890Z,27.40
2018-12-26T04:22:42.494Z,30.00
2018-12-26T04:25:22.127Z,27.90
2018-12-26T04:28:01.464Z,31.57
2018-12-26T04:30:41.378Z,29.30
2018-12-26T04:33:20.877Z,28.63
2018-12-26T04:36:00.256Z,30.73
2018-12-26T04:38:40.147Z,29.93
2018-12-26T04:43:58.743Z,27.60
2018-12-26T04:46:38.402Z,27.67
2018-12-26T04:49:18.084Z,30.90
2018-12-26T04:51:57.670Z,31.43
2018-12-26T04:54:37.034Z,28.27
2018-12-26T05:11:06.330Z,30.93
2018-12-26T05:13:45.711Z,29.50
2018-12-26T05:16:26.491Z,30.63
2018-12-26T05:19:05.987Z,34.13
2018-12-26T05:21:45.566Z,31.87
2018-12-26T05:24:25.046Z,32.17
2018-12-26T05:27:04.510Z,29.53
2018-12-26T05:29:44.189Z,28.67
2018-12-26T05:32:23.668Z,31.40
2018-12-26T05:35:02.944Z,30.07
2018-12-26T05:37:42.532Z,28.50
2018-12-26T05:40:22.011Z,30.33
2018-12-26T05:43:01.270Z,31.57
2018-12-26T05:45:41.190Z,30.53
2018-12-26T05:53:40.782Z,28.63
2018-12-26T05:58:59.595Z,34.33
2018-12-26T06:01:38.923Z,33.30
2018-12-26T06:09:53.875Z,32.57
2018-12-26T06:18:08.418Z,31.70
2018-12-26T06:20:47.799Z,34.23
2018-12-26T06:23:27.119Z,32.80
2018-12-26T06:26:06.594Z,32.13
2018-12-26T06:28:46.220Z,35.83
2018-12-26T06:31:25.912Z,37.13
2018-12-26T06:34:05.451Z,36.03
2018-12-26T06:36:44.990Z,36.43
2018-12-26T06:39:24.486Z,37.67
2018-12-26T06:42:04.157Z,36.77
2018-12-26T06:44:43.804Z,35.87
2018-12-26T06:47:23.642Z,36.63
2018-12-26T06:52:42.599Z,36.50
2018-12-26T06:55:22.677Z,35.77
2018-12-26T06:58:01.496Z,38.97
2018-12-26T07:00:41.168Z,36.40
2018-12-26T07:03:20.403Z,36.60
2018-12-26T07:05:59.902Z,36.57
2018-12-26T07:16:55.883Z,35.33
2018-12-26T07:36:06.195Z,37.40
2018-12-26T07:41:24.831Z,36.87
2018-12-26T07:49:39.044Z,35.30
2018-12-26T07:52:18.328Z,35.27
2018-12-26T07:54:57.978Z,38.10
2018-12-26T07:57:38.415Z,34.87
2018-12-26T08:00:16.958Z,39.60
2018-12-26T08:02:57.790Z,37.10
2018-12-26T08:05:37.166Z,38.97
2018-12-26T08:22:06.513Z,37.50
2018-12-26T08:24:47.079Z,37.63
2018-12-26T08:30:06.545Z,35.83
2018-12-26T08:32:47.507Z,34.47
2018-12-26T08:35:26.986Z,35.13
2018-12-26T08:38:06.966Z,35.30
2018-12-26T08:43:27.683Z,36.87
2018-12-26T08:46:07.078Z,36.70
2018-12-26T08:48:46.400Z,39.13
2018-12-26T08:51:25.985Z,38.33
2018-12-26T08:54:05.674Z,35.57
2018-12-26T08:56:46.086Z,35.63
2018-12-26T09:02:05.194Z,34.07
2018-12-26T09:10:21.059Z,35.10
2018-12-26T09:15:39.691Z,33.60
2018-12-26T09:18:19.112Z,34.53
2018-12-26T09:20:58.465Z,35.50
2018-12-26T09:23:38.167Z,32.17
2018-12-26T09:26:17.852Z,36.37
2018-12-26T09:28:57.591Z,36.33
2018-12-26T09:31:38.503Z,34.40
2018-12-26T09:34:18.136Z,31.53
2018-12-26T09:36:58.434Z,34.87
2018-12-26T09:42:17.031Z,34.10
2018-12-26T09:44:56.726Z,33.23
2018-12-26T09:47:36.201Z,34.47
2018-12-26T09:50:15.774Z,33.20
2018-12-26T09:52:55.375Z,35.10
2018-12-26T09:55:35.880Z,31.80
2018-12-26T10:03:35.200Z,33.10
2018-12-26T10:08:53.964Z,32.73
2018-12-26T10:11:34.047Z,31.27
2018-12-26T10:41:37.491Z,29.07
2018-12-26T10:44:16.930Z,31.40
2018-12-26T10:46:56.619Z,31.50
2018-12-26T10:49:35.968Z,31.30
2018-12-26T10:52:15.298Z,28.77
2018-12-26T10:54:54.586Z,32.67
2018-12-26T10:57:34.067Z,28.47
2018-12-26T11:00:14.910Z,29.27
2018-12-26T11:02:54.303Z,31.93
2018-12-26T11:11:08.540Z,26.70
2018-12-26T11:19:22.734Z,26.07
2018-12-26T11:35:52.514Z,29.73
2018-12-26T11:44:07.427Z,30.87
2018-12-26T11:46:47.150Z,27.20
2018-12-26T11:49:26.848Z,26.50
2018-12-26T11:52:07.224Z,28.37
2018-12-26T11:54:47.062Z,26.10
2018-12-26T11:57:26.639Z,28.97
2018-12-26T12:00:06.336Z,30.20
2018-12-26T12:02:45.708Z,29.23
2018-12-26T12:05:25.353Z,28.63
2018-12-26T12:08:04.668Z,29.70
2018-12-26T12:10:44.306Z,27.33
2018-12-26T12:13:23.736Z,30.40
2018-12-26T12:16:03.150Z,29.60
2018-12-26T12:18:42.557Z,28.73
2018-12-26T12:21:22.058Z,28.97
2018-12-26T12:24:01.775Z,29.23
2018-12-26T12:26:41.233Z,29.30
2018-12-26T12:29:20.638Z,30.47
2018-12-26T12:32:00.190Z,28.53
2018-12-26T12:34:39.659Z,27.03
2018-12-26T12:37:19.240Z,31.33
2018-12-26T12:39:58.774Z,27.87
2018-12-26T12:48:13.423Z,29.50
2018-12-26T12:50:53.067Z,33.47
2018-12-26T12:53:33.372Z,39.93
2018-12-26T12:58:52.050Z,29.07
2018-12-26T13:07:06.202Z,32.33
2018-12-26T13:09:45.876Z,29.13
2018-12-26T13:12:25.451Z,29.93
2018-12-26T13:15:05.686Z,40.53
2018-12-26T13:20:24.173Z,29.40
2018-12-26T13:22:52.824Z,29.63
2018-12-26T13:31:19.055Z,32.20
2018-12-26T13:33:57.466Z,28.93
2018-12-26T13:36:36.840Z,29.33
2018-12-26T13:39:16.568Z,30.63
2018-12-26T13:41:56.085Z,32.70
2018-12-26T13:44:35.738Z,32.53
2018-12-26T13:47:15.110Z,29.63
2018-12-26T13:49:54.747Z,31.90
2018-12-26T13:52:34.237Z,30.33
2018-12-26T13:55:13.586Z,37.20
2018-12-26T13:57:54.402Z,36.00
2018-12-26T14:00:34.136Z,35.13
2018-12-26T14:03:13.594Z,32.90
2018-12-26T14:05:52.871Z,33.93
2018-12-26T14:08:32.455Z,33.57
2018-12-26T14:13:52.590Z,33.13
2018-12-26T14:19:13.012Z,31.10
2018-12-26T14:21:52.842Z,34.27
2018-12-26T14:24:32.120Z,32.37
2018-12-26T14:27:11.764Z,35.83
2018-12-26T14:29:52.576Z,34.37
2018-12-26T14:35:11.292Z,32.17
2018-12-26T14:37:50.704Z,32.57
2018-12-26T14:40:29.947Z,32.90
2018-12-26T14:43:09.530Z,34.23
2018-12-26T14:45:49.040Z,36.00
2018-12-26T14:48:28.425Z,33.43
2018-12-26T14:51:07.866Z,35.73
2018-12-26T14:53:47.574Z,35.13
2018-12-26T14:56:27.126Z,35.83
2018-12-26T15:04:41.371Z,33.83
2018-12-26T15:07:20.776Z,35.67
2018-12-26T15:10:01.339Z,36.30
2018-12-26T15:26:15.651Z,33.57
2018-12-26T15:28:56.428Z,34.00
2018-12-26T15:31:35.751Z,39.07
2018-12-26T15:34:15.104Z,34.50
2018-12-26T15:36:54.451Z,34.90
2018-12-26T15:39:34.072Z,36.67
2018-12-26T15:42:13.406Z,34.30
2018-12-26T15:44:53.143Z,36.40
2018-12-26T15:47:32.840Z,35.33
2018-12-26T15:50:12.330Z,37.00
2018-12-26T15:52:51.954Z,34.33
2018-12-26T15:55:31.998Z,31.90
2018-12-26T16:28:31.502Z,37.00
2018-12-26T16:31:10.792Z,35.03
2018-12-26T16:33:50.298Z,29.37
2018-12-26T16:36:29.798Z,31.57
2018-12-26T16:39:09.766Z,29.53
2018-12-26T16:41:49.618Z,31.07
2018-12-26T16:44:29.002Z,33.23
2018-12-26T16:47:08.715Z,34.10
2018-12-26T16:49:48.302Z,35.77
2018-12-26T16:52:27.523Z,27.07
2018-12-26T16:55:07.516Z,27.63
2018-12-26T17:00:26.215Z,30.53
2018-12-26T17:08:40.268Z,29.93
2018-12-26T17:19:35.857Z,29.57
2018-12-26T17:24:54.355Z,30.93
2018-12-26T17:27:33.851Z,32.37
2018-12-26T17:30:13.126Z,27.83
2018-12-26T17:33:00.391Z,33.00
2018-12-26T17:38:15.227Z,31.03
2018-12-26T17:40:54.638Z,29.20
2018-12-26T17:43:34.342Z,31.10
2018-12-26T17:46:13.955Z,31.47
2018-12-26T17:48:53.639Z,29.80
2018-12-26T17:51:33.325Z,33.37
2018-12-26T17:54:12.891Z,31.40
2018-12-26T17:56:52.431Z,31.40
2018-12-26T17:59:33.232Z,31.50
2018-12-26T18:02:12.789Z,31.43
2018-12-26T18:04:52.370Z,30.47
2018-12-26T18:07:33.207Z,30.03
2018-12-26T18:10:12.875Z,31.53
2018-12-26T18:12:52.380Z,30.13
2018-12-26T18:15:31.702Z,28.93
2018-12-26T18:18:11.311Z,27.87
2018-12-26T18:37:23.995Z,29.30
2018-12-26T18:40:03.576Z,27.00
2018-12-26T18:48:18.179Z,29.40
2018-12-26T18:50:57.650Z,30.23
2018-12-26T18:53:37.219Z,27.97
2018-12-26T18:56:16.437Z,29.70
2018-12-26T18:58:57.258Z,29.03
2018-12-26T19:01:36.643Z,31.00
2018-12-26T19:04:16.318Z,31.43
2018-12-26T19:06:55.814Z,30.47
2018-12-26T19:09:35.547Z,29.20
2018-12-26T19:12:14.820Z,28.83
2018-12-26T19:14:54.291Z,30.43
2018-12-26T19:17:33.979Z,27.83
2018-12-26T19:20:13.406Z,30.47
2018-12-26T19:22:49.790Z,28.57
2018-12-26T19:28:08.379Z,32.00
2018-12-26T19:30:47.860Z,29.73
2018-12-26T19:33:27.392Z,29.87
2018-12-26T19:36:06.849Z,32.87
2018-12-26T19:38:46.391Z,31.20
2018-12-26T19:55:16.328Z,30.83
2018-12-26T19:57:55.736Z,32.90
2018-12-26T20:00:35.254Z,33.00
2018-12-26T20:03:14.879Z,32.57
2018-12-26T20:05:54.696Z,34.90
2018-12-26T20:11:13.440Z,34.43
2018-12-26T20:13:52.831Z,39.60
2018-12-26T20:16:32.423Z,35.70
2018-12-26T20:19:12.023Z,33.07
2018-12-26T20:21:51.438Z,33.13
2018-12-26T20:24:31.111Z,37.33
2018-12-26T20:27:10.584Z,33.43
2018-12-26T20:29:49.926Z,38.17
2018-12-26T20:32:29.634Z,34.40
2018-12-26T20:35:09.378Z,34.33
2018-12-26T20:37:49.115Z,34.17
2018-12-26T20:40:28.719Z,47.63
2018-12-26T20:48:34.065Z,34.83
2018-12-26T20:53:52.729Z,37.07
2018-12-26T20:56:32.127Z,37.60
2018-12-26T20:59:11.771Z,39.43
2018-12-26T21:01:51.392Z,38.23
2018-12-26T21:04:31.248Z,39.83
2018-12-26T21:09:50.118Z,39.07
2018-12-26T21:12:29.539Z,37.67
2018-12-26T21:20:43.615Z,39.37
2018-12-26T21:23:23.083Z,39.20
2018-12-26T21:26:02.611Z,43.73
2018-12-26T21:28:42.217Z,40.90
2018-12-26T21:31:21.872Z,37.93
2018-12-26T21:34:01.484Z,49.60
2018-12-26T21:36:41.101Z,43.67
2018-12-26T21:39:20.555Z,40.37
2018-12-26T21:42:00.087Z,40.73
2018-12-26T21:44:39.646Z,37.90
2018-12-26T21:47:20.197Z,41.47
2018-12-26T21:49:59.784Z,41.57
2018-12-26T21:52:39.385Z,41.10
2018-12-26T21:55:18.970Z,38.40
2018-12-26T21:57:58.587Z,39.00
2018-12-26T22:00:38.278Z,38.33
2018-12-26T22:03:17.743Z,35.67
2018-12-26T22:05:57.837Z,35.30
2018-12-26T22:19:31.706Z,45.03
2018-12-26T22:22:11.835Z,37.17
2018-12-26T22:38:25.895Z,35.60
2018-12-26T22:52:04.031Z,37.40
2018-12-26T23:13:55.807Z,35.40
2018-12-26T23:24:50.828Z,39.17
2018-12-26T23:35:45.851Z,38.43
2018-12-26T23:41:04.756Z,39.00
2018-12-26T23:43:44.118Z,37.90
2018-12-26T23:46:23.706Z,39.10
2018-12-26T23:49:03.057Z,37.67
2018-12-26T23:51:42.795Z,39.23
2018-12-26T23:59:41.364Z,37.13
